sensor_id;sensor_type;location;lat;lon;timestamp;temperature;humidity
21622;DHT22;10973;46.706;12.340;2023-07-13T00:02:00;16.90;99.90
21622;DHT22;10973;46.706;12.340;2023-07-13T00:04:27;16.90;99.90
21622;DHT22;10973;46.706;12.340;2023-07-13T00:06:57;16.70;99.90
21622;DHT22;10973;46.706;12.340;2023-07-13T00:09:25;16.80;99.90
21622;DHT22;10973;46.706;12.340;2023-07-13T00:11:56;16.80;99.90
21622;DHT22;10973;46.706;12.340;2023-07-13T00:14:26;16.80;99.90
21622;DHT22;10973;46.706;12.340;2023-07-13T00:16:55;16.70;99.90
21622;DHT22;10973;46.706;12.340;2023-07-13T00:19:23;16.70;99.90
21622;DHT22;10973;46.706;12.340;2023-07-13T00:21:50;16.70;99.90
21622;DHT22;10973;46.706;12.340;2023-07-13T00:24:18;16.70;99.90
21622;DHT22;10973;46.706;12.340;2023-07-13T00:26:46;16.60;99.90
21622;DHT22;10973;46.706;12.340;2023-07-13T00:29:13;16.30;99.90
21622;DHT22;10973;46.706;12.340;2023-07-13T00:31:43;16.20;99.90
21622;DHT22;10973;46.706;12.340;2023-07-13T00:34:10;15.90;99.90
21622;DHT22;10973;46.706;12.340;2023-07-13T00:36:38;16.00;99.90
21622;DHT22;10973;46.706;12.340;2023-07-13T00:39:05;15.90;99.90
21622;DHT22;10973;46.706;12.340;2023-07-13T00:41:33;16.00;99.90
21622;DHT22;10973;46.706;12.340;2023-07-13T00:44:02;16.10;99.90
21622;DHT22;10973;46.706;12.340;2023-07-13T00:46:32;16.20;99.90
21622;DHT22;10973;46.706;12.340;2023-07-13T00:49:05;16.30;99.90
21622;DHT22;10973;46.706;12.340;2023-07-13T00:52:09;16.00;99.90
21622;DHT22;10973;46.706;12.340;2023-07-13T00:54:39;16.10;99.90
21622;DHT22;10973;46.706;12.340;2023-07-13T00:57:14;16.00;99.90
21622;DHT22;10973;46.706;12.340;2023-07-13T00:59:49;15.80;99.90
21622;DHT22;10973;46.706;12.340;2023-07-13T01:02:19;15.90;99.90
21622;DHT22;10973;46.706;12.340;2023-07-13T01:04:48;16.00;99.90
21622;DHT22;10973;46.706;12.340;2023-07-13T01:07:16;15.90;99.90
21622;DHT22;10973;46.706;12.340;2023-07-13T01:09:43;16.00;99.90
21622;DHT22;10973;46.706;12.340;2023-07-13T01:12:11;15.80;99.90
21622;DHT22;10973;46.706;12.340;2023-07-13T01:14:39;15.70;99.90
21622;DHT22;10973;46.706;12.340;2023-07-13T01:17:09;15.70;99.90
21622;DHT22;10973;46.706;12.340;2023-07-13T01:19:44;15.70;99.90
21622;DHT22;10973;46.706;12.340;2023-07-13T01:22:15;15.80;99.90
21622;DHT22;10973;46.706;12.340;2023-07-13T01:24:46;15.90;99.90
21622;DHT22;10973;46.706;12.340;2023-07-13T01:27:17;15.90;99.90
21622;DHT22;10973;46.706;12.340;2023-07-13T01:29:48;15.90;99.90
21622;DHT22;10973;46.706;12.340;2023-07-13T01:32:20;15.90;99.90
21622;DHT22;10973;46.706;12.340;2023-07-13T01:34:51;15.80;99.90
21622;DHT22;10973;46.706;12.340;2023-07-13T01:37:20;15.80;99.90
21622;DHT22;10973;46.706;12.340;2023-07-13T01:39:48;15.80;99.90
21622;DHT22;10973;46.706;12.340;2023-07-13T01:42:16;15.90;99.90
21622;DHT22;10973;46.706;12.340;2023-07-13T01:44:43;15.80;99.90
21622;DHT22;10973;46.706;12.340;2023-07-13T01:47:11;15.80;99.90
21622;DHT22;10973;46.706;12.340;2023-07-13T01:49:38;15.70;99.90
21622;DHT22;10973;46.706;12.340;2023-07-13T01:52:06;15.80;99.90
21622;DHT22;10973;46.706;12.340;2023-07-13T01:54:33;15.90;99.90
21622;DHT22;10973;46.706;12.340;2023-07-13T01:57:01;15.90;99.90
21622;DHT22;10973;46.706;12.340;2023-07-13T01:59:28;16.00;99.90
21622;DHT22;10973;46.706;12.340;2023-07-13T02:01:56;15.60;99.90
21622;DHT22;10973;46.706;12.340;2023-07-13T02:04:23;15.50;99.90
21622;DHT22;10973;46.706;12.340;2023-07-13T02:06:50;15.50;99.90
21622;DHT22;10973;46.706;12.340;2023-07-13T02:09:18;15.40;99.90
21622;DHT22;10973;46.706;12.340;2023-07-13T02:11:45;15.40;99.90
21622;DHT22;10973;46.706;12.340;2023-07-13T02:14:13;15.40;99.90
21622;DHT22;10973;46.706;12.340;2023-07-13T02:16:40;15.50;99.90
21622;DHT22;10973;46.706;12.340;2023-07-13T02:19:08;15.50;99.90
21622;DHT22;10973;46.706;12.340;2023-07-13T02:21:35;15.50;99.90
21622;DHT22;10973;46.706;12.340;2023-07-13T02:24:03;15.40;99.90
21622;DHT22;10973;46.706;12.340;2023-07-13T02:26:31;15.60;99.90
21622;DHT22;10973;46.706;12.340;2023-07-13T02:28:58;15.60;99.90
21622;DHT22;10973;46.706;12.340;2023-07-13T02:31:26;15.60;99.90
21622;DHT22;10973;46.706;12.340;2023-07-13T02:33:53;15.70;99.90
21622;DHT22;10973;46.706;12.340;2023-07-13T02:36:21;15.60;99.90
21622;DHT22;10973;46.706;12.340;2023-07-13T02:38:49;15.60;99.90
21622;DHT22;10973;46.706;12.340;2023-07-13T02:41:17;15.50;99.90
21622;DHT22;10973;46.706;12.340;2023-07-13T02:43:44;15.50;99.90
21622;DHT22;10973;46.706;12.340;2023-07-13T02:46:12;15.50;99.90
21622;DHT22;10973;46.706;12.340;2023-07-13T02:48:39;15.40;99.90
21622;DHT22;10973;46.706;12.340;2023-07-13T02:51:07;15.30;99.90
21622;DHT22;10973;46.706;12.340;2023-07-13T02:53:35;15.40;99.90
21622;DHT22;10973;46.706;12.340;2023-07-13T02:56:04;15.40;99.90
21622;DHT22;10973;46.706;12.340;2023-07-13T02:58:32;15.40;99.90
21622;DHT22;10973;46.706;12.340;2023-07-13T03:00:59;15.40;99.90
21622;DHT22;10973;46.706;12.340;2023-07-13T03:03:34;15.40;99.90
21622;DHT22;10973;46.706;12.340;2023-07-13T03:06:03;15.30;99.90
21622;DHT22;10973;46.706;12.340;2023-07-13T03:08:31;15.10;99.90
21622;DHT22;10973;46.706;12.340;2023-07-13T03:11:05;15.10;99.90
21622;DHT22;10973;46.706;12.340;2023-07-13T03:13:35;15.10;99.90
21622;DHT22;10973;46.706;12.340;2023-07-13T03:16:02;15.10;99.90
21622;DHT22;10973;46.706;12.340;2023-07-13T03:18:30;15.20;99.90
21622;DHT22;10973;46.706;12.340;2023-07-13T03:20:58;15.20;99.90
21622;DHT22;10973;46.706;12.340;2023-07-13T03:23:26;15.10;99.90
21622;DHT22;10973;46.706;12.340;2023-07-13T03:26:09;15.10;99.90
21622;DHT22;10973;46.706;12.340;2023-07-13T03:28:40;14.90;99.90
21622;DHT22;10973;46.706;12.340;2023-07-13T03:31:14;14.90;99.90
21622;DHT22;10973;46.706;12.340;2023-07-13T03:33:44;14.80;99.90
21622;DHT22;10973;46.706;12.340;2023-07-13T03:36:16;14.90;99.90
21622;DHT22;10973;46.706;12.340;2023-07-13T03:38:51;14.90;99.90
21622;DHT22;10973;46.706;12.340;2023-07-13T03:41:21;14.80;99.90
21622;DHT22;10973;46.706;12.340;2023-07-13T03:43:50;14.80;99.90
21622;DHT22;10973;46.706;12.340;2023-07-13T03:46:17;14.70;99.90
21622;DHT22;10973;46.706;12.340;2023-07-13T03:48:46;14.70;99.90
21622;DHT22;10973;46.706;12.340;2023-07-13T03:51:16;14.70;99.90
21622;DHT22;10973;46.706;12.340;2023-07-13T03:53:46;14.80;99.90
21622;DHT22;10973;46.706;12.340;2023-07-13T03:56:15;14.70;99.90
21622;DHT22;10973;46.706;12.340;2023-07-13T03:58:49;14.70;99.90
21622;DHT22;10973;46.706;12.340;2023-07-13T04:01:18;14.60;99.90
21622;DHT22;10973;46.706;12.340;2023-07-13T04:03:47;14.60;99.90
21622;DHT22;10973;46.706;12.340;2023-07-13T04:06:21;14.60;99.90
21622;DHT22;10973;46.706;12.340;2023-07-13T04:08:58;14.60;99.90
21622;DHT22;10973;46.706;12.340;2023-07-13T04:11:29;14.60;99.90
21622;DHT22;10973;46.706;12.340;2023-07-13T04:13:58;14.50;99.90
21622;DHT22;10973;46.706;12.340;2023-07-13T04:16:26;14.50;99.90
21622;DHT22;10973;46.706;12.340;2023-07-13T04:18:54;14.40;99.90
21622;DHT22;10973;46.706;12.340;2023-07-13T04:21:22;14.40;99.90
21622;DHT22;10973;46.706;12.340;2023-07-13T04:23:50;14.30;99.90
21622;DHT22;10973;46.706;12.340;2023-07-13T04:26:17;14.30;99.90
21622;DHT22;10973;46.706;12.340;2023-07-13T04:28:45;14.30;99.90
21622;DHT22;10973;46.706;12.340;2023-07-13T04:31:12;14.30;99.90
21622;DHT22;10973;46.706;12.340;2023-07-13T04:33:40;14.30;99.90
21622;DHT22;10973;46.706;12.340;2023-07-13T04:36:09;14.20;99.90
21622;DHT22;10973;46.706;12.340;2023-07-13T04:38:37;14.20;99.90
21622;DHT22;10973;46.706;12.340;2023-07-13T04:41:06;14.20;99.90
21622;DHT22;10973;46.706;12.340;2023-07-13T04:43:35;14.20;99.90
21622;DHT22;10973;46.706;12.340;2023-07-13T04:46:05;14.20;99.90
21622;DHT22;10973;46.706;12.340;2023-07-13T04:48:34;14.20;99.90
21622;DHT22;10973;46.706;12.340;2023-07-13T04:51:02;14.20;99.90
21622;DHT22;10973;46.706;12.340;2023-07-13T04:53:31;14.20;99.90
21622;DHT22;10973;46.706;12.340;2023-07-13T04:56:00;14.10;99.90
21622;DHT22;10973;46.706;12.340;2023-07-13T04:58:29;14.10;99.90
21622;DHT22;10973;46.706;12.340;2023-07-13T05:01:01;14.10;99.90
21622;DHT22;10973;46.706;12.340;2023-07-13T05:03:31;14.00;99.90
21622;DHT22;10973;46.706;12.340;2023-07-13T05:06:02;14.00;99.90
21622;DHT22;10973;46.706;12.340;2023-07-13T05:08:33;14.10;99.90
21622;DHT22;10973;46.706;12.340;2023-07-13T05:11:04;14.10;99.90
21622;DHT22;10973;46.706;12.340;2023-07-13T05:13:32;14.10;99.90
21622;DHT22;10973;46.706;12.340;2023-07-13T05:16:02;14.10;99.90
21622;DHT22;10973;46.706;12.340;2023-07-13T05:18:31;14.10;99.90
21622;DHT22;10973;46.706;12.340;2023-07-13T05:21:03;14.00;99.90
21622;DHT22;10973;46.706;12.340;2023-07-13T05:23:35;14.00;99.90
21622;DHT22;10973;46.706;12.340;2023-07-13T05:26:04;14.00;99.90
21622;DHT22;10973;46.706;12.340;2023-07-13T05:28:36;14.10;99.90
21622;DHT22;10973;46.706;12.340;2023-07-13T05:31:07;14.00;99.90
21622;DHT22;10973;46.706;12.340;2023-07-13T05:33:35;14.10;99.90
21622;DHT22;10973;46.706;12.340;2023-07-13T05:36:03;14.10;99.90
21622;DHT22;10973;46.706;12.340;2023-07-13T05:38:30;14.10;99.90
21622;DHT22;10973;46.706;12.340;2023-07-13T05:40:58;14.20;99.90
21622;DHT22;10973;46.706;12.340;2023-07-13T05:43:28;14.20;99.90
21622;DHT22;10973;46.706;12.340;2023-07-13T05:45:56;14.30;99.90
21622;DHT22;10973;46.706;12.340;2023-07-13T05:48:24;14.50;99.90
21622;DHT22;10973;46.706;12.340;2023-07-13T05:50:52;14.50;99.90
21622;DHT22;10973;46.706;12.340;2023-07-13T05:53:20;14.70;99.90
21622;DHT22;10973;46.706;12.340;2023-07-13T05:55:48;14.80;99.90
21622;DHT22;10973;46.706;12.340;2023-07-13T05:58:19;15.00;99.90
21622;DHT22;10973;46.706;12.340;2023-07-13T06:00:47;15.10;99.90
21622;DHT22;10973;46.706;12.340;2023-07-13T06:03:15;15.20;99.90
21622;DHT22;10973;46.706;12.340;2023-07-13T06:05:43;15.30;99.90
21622;DHT22;10973;46.706;12.340;2023-07-13T06:08:10;15.20;99.90
21622;DHT22;10973;46.706;12.340;2023-07-13T06:10:38;15.30;99.90
21622;DHT22;10973;46.706;12.340;2023-07-13T06:13:05;15.40;99.90
21622;DHT22;10973;46.706;12.340;2023-07-13T06:15:32;15.50;99.90
21622;DHT22;10973;46.706;12.340;2023-07-13T06:18:00;15.60;99.90
21622;DHT22;10973;46.706;12.340;2023-07-13T06:20:28;15.60;99.90
21622;DHT22;10973;46.706;12.340;2023-07-13T06:22:56;15.60;99.90
21622;DHT22;10973;46.706;12.340;2023-07-13T06:25:23;15.60;99.90
21622;DHT22;10973;46.706;12.340;2023-07-13T06:27:50;15.60;99.90
21622;DHT22;10973;46.706;12.340;2023-07-13T06:30:18;15.60;99.90
21622;DHT22;10973;46.706;12.340;2023-07-13T06:32:45;15.70;99.90
21622;DHT22;10973;46.706;12.340;2023-07-13T06:35:13;15.70;99.90
21622;DHT22;10973;46.706;12.340;2023-07-13T06:37:40;15.80;99.90
21622;DHT22;10973;46.706;12.340;2023-07-13T06:40:08;15.80;99.90
21622;DHT22;10973;46.706;12.340;2023-07-13T06:42:36;15.90;99.90
21622;DHT22;10973;46.706;12.340;2023-07-13T06:45:04;15.90;99.90
21622;DHT22;10973;46.706;12.340;2023-07-13T06:47:32;16.00;99.90
21622;DHT22;10973;46.706;12.340;2023-07-13T06:50:00;16.00;99.90
21622;DHT22;10973;46.706;12.340;2023-07-13T06:52:28;16.10;99.90
21622;DHT22;10973;46.706;12.340;2023-07-13T06:54:56;16.10;99.90
21622;DHT22;10973;46.706;12.340;2023-07-13T06:57:26;16.20;99.90
21622;DHT22;10973;46.706;12.340;2023-07-13T06:59:55;16.30;99.90
21622;DHT22;10973;46.706;12.340;2023-07-13T07:02:26;16.40;99.90
21622;DHT22;10973;46.706;12.340;2023-07-13T07:04:54;16.40;99.90
21622;DHT22;10973;46.706;12.340;2023-07-13T07:07:24;16.50;99.90
21622;DHT22;10973;46.706;12.340;2023-07-13T07:09:51;16.50;99.90
21622;DHT22;10973;46.706;12.340;2023-07-13T07:12:19;16.50;99.90
21622;DHT22;10973;46.706;12.340;2023-07-13T07:14:46;16.60;99.90
21622;DHT22;10973;46.706;12.340;2023-07-13T07:17:14;16.70;99.90
21622;DHT22;10973;46.706;12.340;2023-07-13T07:19:41;16.80;99.90
21622;DHT22;10973;46.706;12.340;2023-07-13T07:22:09;16.90;99.90
21622;DHT22;10973;46.706;12.340;2023-07-13T07:24:36;16.90;99.90
21622;DHT22;10973;46.706;12.340;2023-07-13T07:27:04;17.00;99.90
21622;DHT22;10973;46.706;12.340;2023-07-13T07:29:35;17.00;99.90
21622;DHT22;10973;46.706;12.340;2023-07-13T07:32:11;17.10;99.90
21622;DHT22;10973;46.706;12.340;2023-07-13T07:34:58;17.20;99.90
21622;DHT22;10973;46.706;12.340;2023-07-13T07:37:26;17.10;99.90
21622;DHT22;10973;46.706;12.340;2023-07-13T07:39:56;17.00;99.90
21622;DHT22;10973;46.706;12.340;2023-07-13T07:42:26;17.00;99.90
21622;DHT22;10973;46.706;12.340;2023-07-13T07:44:54;17.00;99.90
21622;DHT22;10973;46.706;12.340;2023-07-13T07:47:21;16.80;99.90
21622;DHT22;10973;46.706;12.340;2023-07-13T07:49:49;16.80;99.90
21622;DHT22;10973;46.706;12.340;2023-07-13T07:52:16;16.80;99.90
21622;DHT22;10973;46.706;12.340;2023-07-13T07:54:44;16.70;99.90
21622;DHT22;10973;46.706;12.340;2023-07-13T07:57:14;16.70;99.90
21622;DHT22;10973;46.706;12.340;2023-07-13T08:00:01;16.60;99.90
21622;DHT22;10973;46.706;12.340;2023-07-13T08:02:32;16.60;99.90
21622;DHT22;10973;46.706;12.340;2023-07-13T08:05:02;16.70;99.90
21622;DHT22;10973;46.706;12.340;2023-07-13T08:07:33;16.70;99.90
21622;DHT22;10973;46.706;12.340;2023-07-13T08:10:01;16.80;99.90
21622;DHT22;10973;46.706;12.340;2023-07-13T08:12:28;16.90;99.90
21622;DHT22;10973;46.706;12.340;2023-07-13T08:14:58;16.90;99.90
21622;DHT22;10973;46.706;12.340;2023-07-13T08:17:26;17.10;99.90
21622;DHT22;10973;46.706;12.340;2023-07-13T08:19:54;17.00;99.90
21622;DHT22;10973;46.706;12.340;2023-07-13T08:22:21;17.00;99.90
21622;DHT22;10973;46.706;12.340;2023-07-13T08:24:49;17.00;99.90
21622;DHT22;10973;46.706;12.340;2023-07-13T08:27:16;16.90;99.90
21622;DHT22;10973;46.706;12.340;2023-07-13T08:29:44;17.00;99.90
21622;DHT22;10973;46.706;12.340;2023-07-13T08:32:11;17.00;99.90
21622;DHT22;10973;46.706;12.340;2023-07-13T08:34:39;17.10;99.90
21622;DHT22;10973;46.706;12.340;2023-07-13T08:37:08;17.20;99.90
21622;DHT22;10973;46.706;12.340;2023-07-13T08:39:36;17.20;99.90
21622;DHT22;10973;46.706;12.340;2023-07-13T08:42:23;17.10;99.90
21622;DHT22;10973;46.706;12.340;2023-07-13T08:45:06;17.20;99.90
21622;DHT22;10973;46.706;12.340;2023-07-13T08:47:58;17.10;99.90
21622;DHT22;10973;46.706;12.340;2023-07-13T08:50:35;17.20;99.90
21622;DHT22;10973;46.706;12.340;2023-07-13T08:53:34;17.30;99.90
21622;DHT22;10973;46.706;12.340;2023-07-13T08:56:11;17.30;99.90
21622;DHT22;10973;46.706;12.340;2023-07-13T08:58:46;17.40;99.90
21622;DHT22;10973;46.706;12.340;2023-07-13T09:01:46;17.50;99.90
21622;DHT22;10973;46.706;12.340;2023-07-13T09:04:50;17.70;99.90
21622;DHT22;10973;46.706;12.340;2023-07-13T09:07:42;17.80;99.90
21622;DHT22;10973;46.706;12.340;2023-07-13T09:10:23;17.90;99.90
21622;DHT22;10973;46.706;12.340;2023-07-13T09:16:01;18.10;99.90
21622;DHT22;10973;46.706;12.340;2023-07-13T09:18:44;18.30;99.90
21622;DHT22;10973;46.706;12.340;2023-07-13T09:21:24;18.40;99.90
21622;DHT22;10973;46.706;12.340;2023-07-13T09:24:39;18.40;99.90
21622;DHT22;10973;46.706;12.340;2023-07-13T09:27:39;18.50;99.90
21622;DHT22;10973;46.706;12.340;2023-07-13T09:31:18;18.50;99.90
21622;DHT22;10973;46.706;12.340;2023-07-13T09:33:22;18.40;99.90
21622;DHT22;10973;46.706;12.340;2023-07-13T09:35:50;18.30;99.90
21622;DHT22;10973;46.706;12.340;2023-07-13T09:38:19;18.00;99.90
21622;DHT22;10973;46.706;12.340;2023-07-13T09:41:11;18.10;99.90
21622;DHT22;10973;46.706;12.340;2023-07-13T09:44:36;18.00;99.90
21622;DHT22;10973;46.706;12.340;2023-07-13T09:47:20;18.00;99.90
21622;DHT22;10973;46.706;12.340;2023-07-13T09:50:03;17.90;99.90
21622;DHT22;10973;46.706;12.340;2023-07-13T09:52:47;17.90;99.90
21622;DHT22;10973;46.706;12.340;2023-07-13T09:55:32;18.00;99.90
21622;DHT22;10973;46.706;12.340;2023-07-13T09:58:06;18.10;99.90
21622;DHT22;10973;46.706;12.340;2023-07-13T10:00:36;18.20;99.90
21622;DHT22;10973;46.706;12.340;2023-07-13T10:06:12;18.30;99.90
21622;DHT22;10973;46.706;12.340;2023-07-13T10:08:41;18.20;99.90
21622;DHT22;10973;46.706;12.340;2023-07-13T10:11:18;18.20;99.90
21622;DHT22;10973;46.706;12.340;2023-07-13T10:14:01;18.30;99.90
21622;DHT22;10973;46.706;12.340;2023-07-13T10:16:32;18.20;99.90
21622;DHT22;10973;46.706;12.340;2023-07-13T10:21:56;18.20;99.90
21622;DHT22;10973;46.706;12.340;2023-07-13T10:24:27;18.30;99.90
21622;DHT22;10973;46.706;12.340;2023-07-13T10:27:19;18.40;99.90
21622;DHT22;10973;46.706;12.340;2023-07-13T10:29:54;18.60;99.90
21622;DHT22;10973;46.706;12.340;2023-07-13T10:32:28;18.70;99.90
21622;DHT22;10973;46.706;12.340;2023-07-13T10:34:56;18.80;99.90
21622;DHT22;10973;46.706;12.340;2023-07-13T10:37:27;18.90;99.90
21622;DHT22;10973;46.706;12.340;2023-07-13T10:39:59;18.90;99.90
21622;DHT22;10973;46.706;12.340;2023-07-13T10:42:32;19.00;99.90
21622;DHT22;10973;46.706;12.340;2023-07-13T10:45:19;18.90;99.90
21622;DHT22;10973;46.706;12.340;2023-07-13T10:47:50;19.00;99.90
21622;DHT22;10973;46.706;12.340;2023-07-13T10:50:23;19.10;99.90
21622;DHT22;10973;46.706;12.340;2023-07-13T10:52:54;19.30;99.90
21622;DHT22;10973;46.706;12.340;2023-07-13T10:58:32;19.50;99.90
21622;DHT22;10973;46.706;12.340;2023-07-13T11:01:16;19.50;99.90
21622;DHT22;10973;46.706;12.340;2023-07-13T11:04:14;19.50;99.90
21622;DHT22;10973;46.706;12.340;2023-07-13T11:06:43;19.60;99.90
21622;DHT22;10973;46.706;12.340;2023-07-13T11:09:30;19.80;99.90
21622;DHT22;10973;46.706;12.340;2023-07-13T11:12:09;20.10;99.90
21622;DHT22;10973;46.706;12.340;2023-07-13T11:17:35;20.20;99.90
21622;DHT22;10973;46.706;12.340;2023-07-13T11:22:47;20.20;99.90
21622;DHT22;10973;46.706;12.340;2023-07-13T11:30:47;20.40;99.90
21622;DHT22;10973;46.706;12.340;2023-07-13T11:33:47;20.40;99.90
21622;DHT22;10973;46.706;12.340;2023-07-13T11:36:24;20.20;99.90
21622;DHT22;10973;46.706;12.340;2023-07-13T11:39:24;20.40;99.90
21622;DHT22;10973;46.706;12.340;2023-07-13T11:42:08;20.70;99.90
21622;DHT22;10973;46.706;12.340;2023-07-13T11:44:50;20.80;99.90
21622;DHT22;10973;46.706;12.340;2023-07-13T11:47:40;20.70;99.90
21622;DHT22;10973;46.706;12.340;2023-07-13T11:50:20;20.80;99.90
21622;DHT22;10973;46.706;12.340;2023-07-13T11:52:50;20.80;99.90
21622;DHT22;10973;46.706;12.340;2023-07-13T11:55:21;20.60;99.90
21622;DHT22;10973;46.706;12.340;2023-07-13T11:57:51;20.80;99.90
21622;DHT22;10973;46.706;12.340;2023-07-13T12:00:28;20.90;99.90
21622;DHT22;10973;46.706;12.340;2023-07-13T12:03:02;20.90;99.90
21622;DHT22;10973;46.706;12.340;2023-07-13T12:05:31;21.00;99.90
21622;DHT22;10973;46.706;12.340;2023-07-13T12:07:58;21.10;99.90
21622;DHT22;10973;46.706;12.340;2023-07-13T12:10:30;20.90;99.90
21622;DHT22;10973;46.706;12.340;2023-07-13T12:13:01;20.90;99.90
21622;DHT22;10973;46.706;12.340;2023-07-13T12:15:40;21.10;99.90
21622;DHT22;10973;46.706;12.340;2023-07-13T12:18:20;21.50;99.90
21622;DHT22;10973;46.706;12.340;2023-07-13T12:20:51;21.40;99.90
21622;DHT22;10973;46.706;12.340;2023-07-13T12:23:32;21.30;99.90
21622;DHT22;10973;46.706;12.340;2023-07-13T12:26:04;21.20;99.90
21622;DHT22;10973;46.706;12.340;2023-07-13T12:28:39;21.10;99.90
21622;DHT22;10973;46.706;12.340;2023-07-13T12:31:40;20.90;99.90
21622;DHT22;10973;46.706;12.340;2023-07-13T12:36:54;20.40;99.90
21622;DHT22;10973;46.706;12.340;2023-07-13T12:39:35;20.30;99.90
21622;DHT22;10973;46.706;12.340;2023-07-13T12:42:21;20.10;99.90
21622;DHT22;10973;46.706;12.340;2023-07-13T12:45:17;19.80;99.90
21622;DHT22;10973;46.706;12.340;2023-07-13T12:47:49;19.70;99.90
21622;DHT22;10973;46.706;12.340;2023-07-13T12:50:30;19.40;99.90
21622;DHT22;10973;46.706;12.340;2023-07-13T12:53:05;19.30;99.90
21622;DHT22;10973;46.706;12.340;2023-07-13T12:56:02;19.20;99.90
21622;DHT22;10973;46.706;12.340;2023-07-13T12:58:36;18.90;99.90
21622;DHT22;10973;46.706;12.340;2023-07-13T13:01:07;18.60;99.90
21622;DHT22;10973;46.706;12.340;2023-07-13T13:03:45;18.50;99.90
21622;DHT22;10973;46.706;12.340;2023-07-13T13:06:26;18.50;99.90
21622;DHT22;10973;46.706;12.340;2023-07-13T13:08:58;18.40;99.90
21622;DHT22;10973;46.706;12.340;2023-07-13T13:11:28;18.30;99.90
21622;DHT22;10973;46.706;12.340;2023-07-13T13:13:57;18.30;99.90
21622;DHT22;10973;46.706;12.340;2023-07-13T13:16:34;18.20;99.90
21622;DHT22;10973;46.706;12.340;2023-07-13T13:19:13;18.10;99.90
21622;DHT22;10973;46.706;12.340;2023-07-13T13:21:45;18.10;99.90
21622;DHT22;10973;46.706;12.340;2023-07-13T13:24:19;18.00;99.90
21622;DHT22;10973;46.706;12.340;2023-07-13T13:26:50;17.90;99.90
21622;DHT22;10973;46.706;12.340;2023-07-13T13:29:23;17.90;99.90
21622;DHT22;10973;46.706;12.340;2023-07-13T13:31:54;17.90;99.90
21622;DHT22;10973;46.706;12.340;2023-07-13T13:34:24;18.00;99.90
21622;DHT22;10973;46.706;12.340;2023-07-13T13:36:53;17.90;99.90
21622;DHT22;10973;46.706;12.340;2023-07-13T13:39:36;17.80;99.90
21622;DHT22;10973;46.706;12.340;2023-07-13T13:42:05;17.70;99.90
21622;DHT22;10973;46.706;12.340;2023-07-13T13:44:32;17.70;99.90
21622;DHT22;10973;46.706;12.340;2023-07-13T13:47:00;17.70;99.90
21622;DHT22;10973;46.706;12.340;2023-07-13T13:49:29;17.70;99.90
21622;DHT22;10973;46.706;12.340;2023-07-13T13:51:57;17.70;99.90
21622;DHT22;10973;46.706;12.340;2023-07-13T13:54:24;17.70;99.90
21622;DHT22;10973;46.706;12.340;2023-07-13T13:56:53;17.70;99.90
21622;DHT22;10973;46.706;12.340;2023-07-13T13:59:20;17.60;99.90
21622;DHT22;10973;46.706;12.340;2023-07-13T14:01:48;17.60;99.90
21622;DHT22;10973;46.706;12.340;2023-07-13T14:04:19;17.60;99.90
21622;DHT22;10973;46.706;12.340;2023-07-13T14:06:48;17.50;99.90
21622;DHT22;10973;46.706;12.340;2023-07-13T14:09:19;17.40;99.90
21622;DHT22;10973;46.706;12.340;2023-07-13T14:11:48;17.40;99.90
21622;DHT22;10973;46.706;12.340;2023-07-13T14:14:23;17.50;99.90
21622;DHT22;10973;46.706;12.340;2023-07-13T14:16:52;17.40;99.90
21622;DHT22;10973;46.706;12.340;2023-07-13T14:19:20;17.40;99.90
21622;DHT22;10973;46.706;12.340;2023-07-13T14:21:47;17.50;99.90
21622;DHT22;10973;46.706;12.340;2023-07-13T14:24:15;17.40;99.90
21622;DHT22;10973;46.706;12.340;2023-07-13T14:26:42;17.40;99.90
21622;DHT22;10973;46.706;12.340;2023-07-13T14:29:16;17.40;99.90
21622;DHT22;10973;46.706;12.340;2023-07-13T14:31:50;17.40;99.90
21622;DHT22;10973;46.706;12.340;2023-07-13T14:34:18;17.30;99.90
21622;DHT22;10973;46.706;12.340;2023-07-13T14:36:48;17.30;99.90
21622;DHT22;10973;46.706;12.340;2023-07-13T14:39:18;17.30;99.90
21622;DHT22;10973;46.706;12.340;2023-07-13T14:41:53;17.30;99.90
21622;DHT22;10973;46.706;12.340;2023-07-13T14:44:25;17.40;99.90
21622;DHT22;10973;46.706;12.340;2023-07-13T14:46:56;17.40;99.90
21622;DHT22;10973;46.706;12.340;2023-07-13T14:49:32;17.50;99.90
21622;DHT22;10973;46.706;12.340;2023-07-13T14:52:23;17.40;99.90
21622;DHT22;10973;46.706;12.340;2023-07-13T14:54:53;17.60;99.90
21622;DHT22;10973;46.706;12.340;2023-07-13T14:57:21;17.70;99.90
21622;DHT22;10973;46.706;12.340;2023-07-13T14:59:49;17.90;99.90
21622;DHT22;10973;46.706;12.340;2023-07-13T15:02:28;18.00;99.90
21622;DHT22;10973;46.706;12.340;2023-07-13T15:04:59;18.20;99.90
21622;DHT22;10973;46.706;12.340;2023-07-13T15:07:27;18.30;99.90
21622;DHT22;10973;46.706;12.340;2023-07-13T15:09:55;18.40;99.90
21622;DHT22;10973;46.706;12.340;2023-07-13T15:12:22;18.60;99.90
21622;DHT22;10973;46.706;12.340;2023-07-13T15:14:50;18.80;99.90
21622;DHT22;10973;46.706;12.340;2023-07-13T15:17:40;19.00;99.90
21622;DHT22;10973;46.706;12.340;2023-07-13T15:20:25;19.70;99.90
21622;DHT22;10973;46.706;12.340;2023-07-13T15:22:55;20.30;99.90
21622;DHT22;10973;46.706;12.340;2023-07-13T15:25:26;20.10;99.90
21622;DHT22;10973;46.706;12.340;2023-07-13T15:27:57;19.90;99.90
21622;DHT22;10973;46.706;12.340;2023-07-13T15:30:29;19.70;99.90
21622;DHT22;10973;46.706;12.340;2023-07-13T15:33:05;19.50;99.90
21622;DHT22;10973;46.706;12.340;2023-07-13T15:35:43;19.30;99.90
21622;DHT22;10973;46.706;12.340;2023-07-13T15:38:17;19.20;99.90
21622;DHT22;10973;46.706;12.340;2023-07-13T15:40:48;19.20;99.90
21622;DHT22;10973;46.706;12.340;2023-07-13T15:43:18;19.10;99.90
21622;DHT22;10973;46.706;12.340;2023-07-13T15:45:47;19.20;99.90
21622;DHT22;10973;46.706;12.340;2023-07-13T15:48:16;19.30;99.90
21622;DHT22;10973;46.706;12.340;2023-07-13T15:50:55;19.30;99.90
21622;DHT22;10973;46.706;12.340;2023-07-13T15:53:33;19.20;99.90
21622;DHT22;10973;46.706;12.340;2023-07-13T15:56:12;19.20;99.90
21622;DHT22;10973;46.706;12.340;2023-07-13T15:58:45;19.10;99.90
21622;DHT22;10973;46.706;12.340;2023-07-13T16:01:12;19.00;99.90
21622;DHT22;10973;46.706;12.340;2023-07-13T16:03:43;18.90;99.90
21622;DHT22;10973;46.706;12.340;2023-07-13T16:06:15;18.90;99.90
21622;DHT22;10973;46.706;12.340;2023-07-13T16:08:47;18.80;99.90
21622;DHT22;10973;46.706;12.340;2023-07-13T16:11:19;19.00;99.90
21622;DHT22;10973;46.706;12.340;2023-07-13T16:13:51;19.30;99.90